createdAt,value
2018-06-09T00:00:48.001Z,6.23
2018-06-09T00:03:17.056Z,4.90
2018-06-09T00:05:46.119Z,5.43
2018-06-09T00:08:15.164Z,6.70
2018-06-09T00:10:44.191Z,6.03
2018-06-09T00:13:13.245Z,5.83
2018-06-09T00:15:42.219Z,6.20
2018-06-09T00:18:11.261Z,4.50
2018-06-09T00:20:46.730Z,5.30
2018-06-09T00:23:15.900Z,4.30
2018-06-09T00:25:45.281Z,4.77
2018-06-09T00:28:14.286Z,5.90
2018-06-09T00:30:43.302Z,5.60
2018-06-09T00:33:12.322Z,5.30
2018-06-09T00:35:41.328Z,5.57
2018-06-09T00:38:10.341Z,5.70
2018-06-09T00:40:39.364Z,5.63
2018-06-09T00:43:09.574Z,5.20
2018-06-09T00:45:38.583Z,6.13
2018-06-09T00:48:07.606Z,6.57
2018-06-09T00:50:36.681Z,4.30
2018-06-09T00:53:05.784Z,5.30
2018-06-09T00:55:34.878Z,4.80
2018-06-09T00:58:03.860Z,5.30
2018-06-09T01:00:33.093Z,6.87
2018-06-09T01:03:02.095Z,6.97
2018-06-09T01:05:31.189Z,6.20
2018-06-09T01:08:00.247Z,6.93
2018-06-09T01:10:29.247Z,5.00
2018-06-09T01:12:58.367Z,5.77
2018-06-09T01:15:27.436Z,5.63
2018-06-09T01:17:56.393Z,5.70
2018-06-09T01:20:25.541Z,5.93
2018-06-09T01:22:54.560Z,5.87
2018-06-09T01:25:23.601Z,5.33
2018-06-09T01:27:52.545Z,4.80
2018-06-09T01:30:22.063Z,5.60
2018-06-09T01:32:51.026Z,5.30
2018-06-09T01:35:20.033Z,6.13
2018-06-09T01:37:49.051Z,6.40
2018-06-09T01:40:18.050Z,4.73
2018-06-09T01:42:47.081Z,5.20
2018-06-09T01:45:16.072Z,6.40
2018-06-09T01:47:48.191Z,5.47
2018-06-09T01:50:17.276Z,5.27
2018-06-09T01:52:46.359Z,5.17
2018-06-09T01:55:15.570Z,4.80
2018-06-09T01:57:44.687Z,4.73
2018-06-09T02:00:13.883Z,5.43
2018-06-09T02:02:43.464Z,5.00
2018-06-09T02:05:12.582Z,5.00
2018-06-09T02:07:42.477Z,5.50
2018-06-09T02:10:11.591Z,6.17
2018-06-09T02:12:40.584Z,5.10
2018-06-09T02:15:09.617Z,6.40
2018-06-09T02:17:38.622Z,6.23
2018-06-09T02:20:07.690Z,5.30
2018-06-09T02:22:36.669Z,4.43
2018-06-09T02:25:05.845Z,5.13
2018-06-09T02:27:34.859Z,5.73
2018-06-09T02:30:03.878Z,6.30
2018-06-09T02:32:32.845Z,4.57
2018-06-09T02:35:01.907Z,5.07
2018-06-09T02:37:30.918Z,5.80
2018-06-09T02:39:59.976Z,5.07
2018-06-09T02:42:29.200Z,6.40
2018-06-09T02:44:59.405Z,5.83
2018-06-09T02:47:28.704Z,6.90
2018-06-09T02:49:58.134Z,5.63
2018-06-09T02:52:27.414Z,5.83
2018-06-09T02:54:56.800Z,4.80
2018-06-09T02:57:26.852Z,6.03
2018-06-09T02:59:56.283Z,6.73
2018-06-09T03:02:25.770Z,5.80
2018-06-09T03:04:55.192Z,5.30
2018-06-09T03:07:24.516Z,5.07
2018-06-09T03:09:53.837Z,4.23
2018-06-09T03:12:23.313Z,5.37
2018-06-09T03:14:52.355Z,5.83
2018-06-09T03:17:21.319Z,6.00
2018-06-09T03:19:50.399Z,6.13
2018-06-09T03:22:19.422Z,5.57
2018-06-09T03:24:48.433Z,5.10
2018-06-09T03:27:17.445Z,5.60
2018-06-09T03:29:46.424Z,6.43
2018-06-09T03:32:15.489Z,4.93
2018-06-09T03:34:44.538Z,6.10
2018-06-09T03:37:13.580Z,6.33
2018-06-09T03:39:42.621Z,6.77
2018-06-09T03:42:11.667Z,6.80
2018-06-09T03:44:40.778Z,5.60
2018-06-09T03:47:09.903Z,6.97
2018-06-09T03:49:38.910Z,7.03
2018-06-09T03:52:07.917Z,6.40
2018-06-09T03:54:36.936Z,6.50
2018-06-09T03:57:06.000Z,6.60
2018-06-09T03:59:35.011Z,6.20
2018-06-09T04:02:04.213Z,6.07
2018-06-09T04:04:33.304Z,7.10
2018-06-09T04:07:02.325Z,6.43
2018-06-09T04:09:31.351Z,6.47
2018-06-09T04:12:00.347Z,6.97
2018-06-09T04:14:29.624Z,6.27
2018-06-09T04:16:58.702Z,6.00
2018-06-09T04:19:27.792Z,6.00
2018-06-09T04:21:56.779Z,5.67
2018-06-09T04:24:25.751Z,5.93
2018-06-09T04:26:54.913Z,6.17
2018-06-09T04:29:24.977Z,5.23
2018-06-09T04:31:54.113Z,5.60
2018-06-09T04:34:24.216Z,4.30
2018-06-09T04:36:53.882Z,5.37
2018-06-09T04:39:22.939Z,5.00
2018-06-09T04:41:51.878Z,6.77
2018-06-09T04:44:20.985Z,5.20
2018-06-09T04:46:50.073Z,7.83
2018-06-09T04:49:19.151Z,5.83
2018-06-09T04:51:48.125Z,7.07
2018-06-09T04:54:17.225Z,8.33
2018-06-09T04:56:46.306Z,8.97
2018-06-09T04:59:15.711Z,7.00
2018-06-09T05:01:45.035Z,6.80
2018-06-09T05:04:14.361Z,6.90
2018-06-09T05:06:43.416Z,6.40
2018-06-09T05:09:12.455Z,6.13
2018-06-09T05:11:41.561Z,6.70
2018-06-09T05:14:10.674Z,6.37
2018-06-09T05:16:40.306Z,7.67
2018-06-09T05:19:09.621Z,6.03
2018-06-09T05:21:38.595Z,5.90
2018-06-09T05:24:13.883Z,6.13
2018-06-09T05:26:42.897Z,7.50
2018-06-09T05:29:12.768Z,6.17
2018-06-09T05:31:41.778Z,6.90
2018-06-09T05:34:10.834Z,6.17
2018-06-09T05:36:40.894Z,6.57
2018-06-09T05:39:10.160Z,6.83
2018-06-09T05:41:39.170Z,5.83
2018-06-09T05:44:08.243Z,6.60
2018-06-09T05:46:38.191Z,6.97
2018-06-09T05:49:07.212Z,6.57
2018-06-09T05:51:36.256Z,8.03
2018-06-09T05:54:05.298Z,6.57
2018-06-09T05:56:35.117Z,7.07
2018-06-09T05:59:06.112Z,6.70
2018-06-09T06:01:35.189Z,6.53
2018-06-09T06:04:04.986Z,7.60
2018-06-09T06:06:34.133Z,7.30
2018-06-09T06:09:04.743Z,7.37
2018-06-09T06:11:33.865Z,6.67
2018-06-09T06:14:03.843Z,5.40
2018-06-09T06:16:34.193Z,5.23
2018-06-09T06:19:03.472Z,5.10
2018-06-09T06:21:32.614Z,5.77
2018-06-09T06:24:01.728Z,6.10
2018-06-09T06:26:30.965Z,5.53
2018-06-09T06:29:00.777Z,5.47
2018-06-09T06:31:30.331Z,6.50
2018-06-09T06:34:00.906Z,6.10
2018-06-09T06:36:31.464Z,6.93
2018-06-09T06:39:00.575Z,6.33
2018-06-09T06:41:29.625Z,5.30
2018-06-09T06:43:58.798Z,6.63
2018-06-09T06:46:27.845Z,6.40
2018-06-09T06:48:57.574Z,6.63
2018-06-09T06:51:26.618Z,5.60
2018-06-09T06:53:55.688Z,6.30
2018-06-09T06:56:24.783Z,5.73
2018-06-09T06:58:53.880Z,6.70
2018-06-09T07:01:24.193Z,6.10
2018-06-09T07:03:54.970Z,5.20
2018-06-09T07:06:24.047Z,5.97
2018-06-09T07:08:53.957Z,5.80
2018-06-09T07:11:22.989Z,6.57
2018-06-09T07:13:51.998Z,7.87
2018-06-09T07:16:21.095Z,6.40
2018-06-09T07:18:50.130Z,5.97
2018-06-09T07:21:19.189Z,5.70
2018-06-09T07:23:49.290Z,6.20
2018-06-09T07:26:20.224Z,7.57
2018-06-09T07:28:49.325Z,6.03
2018-06-09T07:31:19.630Z,5.10
2018-06-09T07:33:48.827Z,5.93
2018-06-09T07:36:19.709Z,5.67
2018-06-09T07:38:48.944Z,6.40
2018-06-09T07:41:18.244Z,6.23
2018-06-09T07:43:51.072Z,5.07
2018-06-09T07:46:20.148Z,5.47
2018-06-09T07:48:51.659Z,5.10
2018-06-09T07:51:20.798Z,5.47
2018-06-09T07:53:49.911Z,6.50
2018-06-09T07:56:19.553Z,6.43
2018-06-09T07:58:48.993Z,5.37
2018-06-09T08:01:18.729Z,5.83
2018-06-09T08:03:48.524Z,5.87
2018-06-09T08:06:17.637Z,6.27
2018-06-09T08:08:46.739Z,5.63
2018-06-09T08:11:15.900Z,5.33
2018-06-09T08:13:45.527Z,5.93
2018-06-09T08:16:15.253Z,6.43
2018-06-09T08:18:45.801Z,4.97
2018-06-09T08:21:16.115Z,5.17
2018-06-09T08:23:45.239Z,5.20
2018-06-09T08:26:14.320Z,4.93
2018-06-09T08:28:44.228Z,5.70
2018-06-09T08:31:14.343Z,4.57
2018-06-09T08:33:44.123Z,5.60
2018-06-09T08:36:13.614Z,5.17
2018-06-09T08:38:43.086Z,7.10
2018-06-09T08:41:12.474Z,5.93
2018-06-09T08:43:41.949Z,5.63
2018-06-09T08:46:11.306Z,5.67
2018-06-09T08:48:40.583Z,5.50
2018-06-09T08:51:10.688Z,5.20
2018-06-09T08:53:40.736Z,6.47
2018-06-09T08:56:10.341Z,7.03
2018-06-09T08:58:40.830Z,6.07
2018-06-09T09:01:11.391Z,4.70
2018-06-09T09:03:40.719Z,5.77
2018-06-09T09:06:10.051Z,6.20
2018-06-09T09:08:40.338Z,5.00
2018-06-09T09:11:12.543Z,5.10
2018-06-09T09:13:41.885Z,4.73
2018-06-09T09:16:11.931Z,5.70
2018-06-09T09:18:41.460Z,5.80
2018-06-09T09:21:11.504Z,5.90
2018-06-09T09:23:41.121Z,4.50
2018-06-09T09:26:11.049Z,6.10
2018-06-09T09:28:40.945Z,4.93
2018-06-09T09:31:10.342Z,5.07
2018-06-09T09:33:39.598Z,4.90
2018-06-09T09:36:08.900Z,6.07
2018-06-09T09:38:38.174Z,5.07
2018-06-09T09:41:07.626Z,5.10
2018-06-09T09:43:38.279Z,4.80
2018-06-09T09:46:09.332Z,3.70
2018-06-09T09:48:39.714Z,5.20
2018-06-09T09:51:09.206Z,5.50
2018-06-09T09:53:38.690Z,5.20
2018-06-09T09:56:08.430Z,4.70
2018-06-09T09:58:39.034Z,4.60
2018-06-09T10:01:09.235Z,5.10
2018-06-09T10:03:38.609Z,5.13
2018-06-09T10:06:08.850Z,5.50
2018-06-09T10:08:38.751Z,5.60
2018-06-09T10:11:08.317Z,5.10
2018-06-09T10:13:39.240Z,5.10
2018-06-09T10:16:09.408Z,4.23
2018-06-09T10:18:38.781Z,6.00
2018-06-09T10:21:08.095Z,4.40
2018-06-09T10:23:37.497Z,5.67
2018-06-09T10:26:07.978Z,5.03
2018-06-09T10:28:39.447Z,4.53
2018-06-09T10:31:08.761Z,5.33
2018-06-09T10:33:38.135Z,4.67
2018-06-09T10:36:07.596Z,4.50
2018-06-09T10:38:39.030Z,3.93
2018-06-09T10:41:08.482Z,4.80
2018-06-09T10:43:37.720Z,4.50
2018-06-09T10:46:08.420Z,4.37
2018-06-09T10:48:39.309Z,5.00
2018-06-09T10:51:08.728Z,4.57
2018-06-09T10:53:38.963Z,4.50
2018-06-09T10:56:08.382Z,5.00
2018-06-09T10:58:39.625Z,5.30
2018-06-09T11:01:08.694Z,4.40
2018-06-09T11:03:38.668Z,4.10
2018-06-09T11:06:07.821Z,5.03
2018-06-09T11:08:36.963Z,5.17
2018-06-09T11:11:05.984Z,3.87
2018-06-09T11:13:36.116Z,4.40
2018-06-09T11:16:06.165Z,5.73
2018-06-09T11:18:35.477Z,5.00
2018-06-09T11:21:06.373Z,4.80
2018-06-09T11:23:35.546Z,4.77
2018-06-09T11:26:04.882Z,5.07
2018-06-09T11:28:34.256Z,4.40
2018-06-09T11:31:04.550Z,4.50
2018-06-09T11:33:35.461Z,4.73
2018-06-09T11:36:04.932Z,4.60
2018-06-09T11:38:34.929Z,4.43
2018-06-09T11:41:07.295Z,4.57
2018-06-09T11:43:36.776Z,4.63
2018-06-09T11:46:06.963Z,4.87
2018-06-09T11:48:36.830Z,4.70
2018-06-09T11:51:06.297Z,3.27
2018-06-09T11:53:35.520Z,4.70
2018-06-09T11:56:05.561Z,3.50
2018-06-09T11:58:34.745Z,4.43
2018-06-09T12:01:03.999Z,4.60
2018-06-09T12:03:33.761Z,4.70
2018-06-09T12:06:02.961Z,5.40
2018-06-09T12:08:32.955Z,5.03
2018-06-09T12:11:02.111Z,4.43
2018-06-09T12:13:31.286Z,4.73
2018-06-09T12:16:00.360Z,4.33
2018-06-09T12:18:30.175Z,4.40
2018-06-09T12:20:59.495Z,5.57
2018-06-09T12:23:28.841Z,4.83
2018-06-09T12:25:58.850Z,4.30
2018-06-09T12:28:29.591Z,4.10
2018-06-09T12:30:59.897Z,3.80
2018-06-09T12:33:29.987Z,3.97
2018-06-09T12:35:59.317Z,4.70
2018-06-09T12:38:28.344Z,5.07
2018-06-09T12:40:57.404Z,4.70
2018-06-09T12:43:26.559Z,5.27
2018-06-09T12:45:55.957Z,4.70
2018-06-09T12:48:25.145Z,3.80
2018-06-09T12:50:54.802Z,4.80
2018-06-09T12:53:23.881Z,4.27
2018-06-09T12:55:52.979Z,4.27
2018-06-09T12:58:22.096Z,4.17
2018-06-09T13:00:52.088Z,5.33
2018-06-09T13:03:21.097Z,3.87
2018-06-09T13:05:53.118Z,5.50
2018-06-09T13:08:22.171Z,5.10
2018-06-09T13:10:52.192Z,4.97
2018-06-09T13:13:21.941Z,6.43
2018-06-09T13:15:52.305Z,5.33
2018-06-09T13:18:21.311Z,5.77
2018-06-09T13:20:50.347Z,6.57
2018-06-09T13:23:19.360Z,6.20
2018-06-09T13:25:49.309Z,5.00
2018-06-09T13:28:18.542Z,5.20
2018-06-09T13:30:48.620Z,5.53
2018-06-09T13:33:17.753Z,5.27
2018-06-09T13:35:46.788Z,4.87
2018-06-09T13:38:16.049Z,5.80
2018-06-09T13:40:46.574Z,4.80
2018-06-09T13:43:16.372Z,5.13
2018-06-09T13:45:46.791Z,3.53
2018-06-09T13:48:16.200Z,5.20
2018-06-09T13:50:45.615Z,3.37
2018-06-09T13:53:16.064Z,3.70
2018-06-09T13:55:45.868Z,3.33
2018-06-09T13:58:16.263Z,3.80
2018-06-09T14:00:45.621Z,3.47
2018-06-09T14:03:14.779Z,3.23
2018-06-09T14:05:44.154Z,3.30
2018-06-09T14:08:14.261Z,3.40
2018-06-09T14:10:44.728Z,3.10
2018-06-09T14:13:14.220Z,3.93
2018-06-09T14:15:43.769Z,3.73
2018-06-09T14:18:13.205Z,3.90
2018-06-09T14:20:43.529Z,3.27
2018-06-09T14:23:13.394Z,3.37
2018-06-09T14:25:42.509Z,2.90
2018-06-09T14:28:12.356Z,3.63
2018-06-09T14:30:41.476Z,3.97
2018-06-09T14:33:10.640Z,4.03
2018-06-09T14:35:40.017Z,3.90
2018-06-09T14:38:09.122Z,4.20
2018-06-09T14:40:38.995Z,2.90
2018-06-09T14:43:09.206Z,3.40
2018-06-09T14:45:38.311Z,3.00
2018-06-09T14:48:07.447Z,2.87
2018-06-09T14:50:37.733Z,2.90
2018-06-09T14:53:06.859Z,3.53
2018-06-09T14:55:35.938Z,3.60
2018-06-09T14:58:05.036Z,3.10
2018-06-09T15:00:36.116Z,3.87
2018-06-09T15:03:06.869Z,2.73
2018-06-09T15:05:35.999Z,2.47
2018-06-09T15:08:05.954Z,2.80
2018-06-09T15:10:35.096Z,3.33
2018-06-09T15:13:06.161Z,2.67
2018-06-09T15:15:35.237Z,3.50
2018-06-09T15:18:05.004Z,3.00
2018-06-09T15:20:34.143Z,3.10
2018-06-09T15:23:04.471Z,3.83
2018-06-09T15:25:33.952Z,3.40
2018-06-09T15:28:03.119Z,4.60
2018-06-09T15:30:32.150Z,4.20
2018-06-09T15:33:02.325Z,4.90
2018-06-09T15:35:31.346Z,2.80
2018-06-09T15:38:00.458Z,3.30
2018-06-09T15:40:29.542Z,3.97
2018-06-09T15:42:59.518Z,3.20
2018-06-09T15:45:30.843Z,3.80
2018-06-09T15:48:00.154Z,4.07
2018-06-09T15:50:31.155Z,4.23
2018-06-09T15:53:00.610Z,3.80
2018-06-09T15:55:30.891Z,3.70
2018-06-09T15:58:00.324Z,5.10
2018-06-09T16:00:31.880Z,4.43
2018-06-09T16:03:01.267Z,5.47
2018-06-09T16:05:32.064Z,4.50
2018-06-09T16:08:01.327Z,4.03
2018-06-09T16:10:31.630Z,5.50
2018-06-09T16:13:00.762Z,4.20
2018-06-09T16:15:32.168Z,5.30
2018-06-09T16:18:03.523Z,4.33
2018-06-09T16:20:33.333Z,5.20
2018-06-09T16:23:03.195Z,4.83
2018-06-09T16:25:32.599Z,4.70
2018-06-09T16:28:02.804Z,4.37
2018-06-09T16:30:32.253Z,5.60
2018-06-09T16:33:01.756Z,5.17
2018-06-09T16:35:31.078Z,4.27
2018-06-09T16:38:00.449Z,4.43
2018-06-09T16:40:29.766Z,5.93
2018-06-09T16:43:02.883Z,5.33
2018-06-09T16:45:32.339Z,4.77
2018-06-09T16:48:01.669Z,5.20
2018-06-09T16:50:31.062Z,6.00
2018-06-09T16:53:00.426Z,5.80
2018-06-09T16:55:29.686Z,6.50
2018-06-09T16:57:58.872Z,4.50
2018-06-09T17:00:28.203Z,6.20
2018-06-09T17:02:58.511Z,5.17
2018-06-09T17:05:28.603Z,4.70
2018-06-09T17:07:59.400Z,5.60
2018-06-09T17:10:28.515Z,5.90
2018-06-09T17:12:59.034Z,6.33
2018-06-09T17:15:28.410Z,4.70
2018-06-09T17:17:58.573Z,5.63
2018-06-09T17:20:27.760Z,5.80
2018-06-09T17:22:56.837Z,6.17
2018-06-09T17:25:25.968Z,4.70
2018-06-09T17:27:55.402Z,5.20
2018-06-09T17:30:24.891Z,5.80
2018-06-09T17:32:54.320Z,5.30
2018-06-09T17:35:23.799Z,5.20
2018-06-09T17:37:53.304Z,5.13
2018-06-09T17:40:22.921Z,4.70
2018-06-09T17:42:54.300Z,4.90
2018-06-09T17:45:24.433Z,4.70
2018-06-09T17:47:54.016Z,4.13
2018-06-09T17:50:24.223Z,6.40
2018-06-09T17:52:54.780Z,5.57
2018-06-09T17:55:24.299Z,4.40
2018-06-09T17:57:53.780Z,5.37
2018-06-09T18:00:23.963Z,5.20
2018-06-09T18:02:53.879Z,6.13
2018-06-09T18:05:32.424Z,5.90
2018-06-09T18:08:18.604Z,6.03
2018-06-09T18:10:47.693Z,4.90
2018-06-09T18:13:16.992Z,4.97
2018-06-09T18:15:46.055Z,5.47
2018-06-09T18:18:15.233Z,5.57
2018-06-09T18:20:44.949Z,5.90
2018-06-09T18:23:15.501Z,4.83
2018-06-09T18:25:47.809Z,5.80
2018-06-09T18:28:17.337Z,4.93
2018-06-09T18:30:47.559Z,4.93
2018-06-09T18:33:19.100Z,4.93
2018-06-09T18:35:51.548Z,5.10
2018-06-09T18:38:23.560Z,5.80
2018-06-09T18:40:53.824Z,5.17
2018-06-09T18:43:23.813Z,5.67
2018-06-09T18:45:54.024Z,4.80
2018-06-09T18:48:25.176Z,6.23
2018-06-09T18:50:56.232Z,6.13
2018-06-09T18:53:26.679Z,5.90
2018-06-09T18:55:56.014Z,6.00
2018-06-09T18:58:26.592Z,4.57
2018-06-09T19:00:57.305Z,5.17
2018-06-09T19:03:27.763Z,5.67
2018-06-09T19:05:57.365Z,5.93
2018-06-09T19:08:28.029Z,5.80
2018-06-09T19:10:57.867Z,5.27
2018-06-09T19:13:27.396Z,5.23
2018-06-09T19:15:56.689Z,5.93
2018-06-09T19:18:26.178Z,5.13
2018-06-09T19:20:55.732Z,5.23
2018-06-09T19:23:25.071Z,5.97
2018-06-09T19:25:55.023Z,4.97
2018-06-09T19:28:24.397Z,5.37
2018-06-09T19:30:53.967Z,5.47
2018-06-09T19:33:24.114Z,5.33
2018-06-09T19:35:54.132Z,6.27
2018-06-09T19:38:28.683Z,6.20
2018-06-09T19:40:58.104Z,5.07
2018-06-09T19:43:29.118Z,5.90
2018-06-09T19:46:00.726Z,5.40
2018-06-09T19:48:33.353Z,5.47
2018-06-09T19:51:02.597Z,4.60
2018-06-09T19:53:33.069Z,5.67
2018-06-09T19:56:02.977Z,4.40
2018-06-09T19:58:34.213Z,5.40
2018-06-09T20:01:03.603Z,5.00
2018-06-09T20:03:33.202Z,5.43
2018-06-09T20:06:02.548Z,4.60
2018-06-09T20:08:33.341Z,5.17
2018-06-09T20:11:03.376Z,5.50
2018-06-09T20:13:32.867Z,5.23
2018-06-09T20:16:02.118Z,5.93
2018-06-09T20:18:32.129Z,5.50
2018-06-09T20:21:02.124Z,4.80
2018-06-09T20:23:32.781Z,4.60
2018-06-09T20:26:05.961Z,5.73
2018-06-09T20:28:35.083Z,5.03
2018-06-09T20:31:04.395Z,6.70
2018-06-09T20:33:33.879Z,5.20
2018-06-09T20:36:03.657Z,6.33
2018-06-09T20:38:34.337Z,5.40
2018-06-09T20:41:03.742Z,4.97
2018-06-09T20:43:33.358Z,5.10
2018-06-09T20:46:02.807Z,5.40
2018-06-09T20:48:32.102Z,5.23
2018-06-09T20:51:01.378Z,5.40
2018-06-09T20:53:30.757Z,4.77
2018-06-09T20:56:00.633Z,4.63
2018-06-09T20:58:34.718Z,4.73
2018-06-09T21:01:04.307Z,4.53
2018-06-09T21:03:34.241Z,4.57
2018-06-09T21:06:03.311Z,4.60
2018-06-09T21:08:32.504Z,4.70
2018-06-09T21:11:01.522Z,4.47
2018-06-09T21:13:33.391Z,5.30
2018-06-09T21:16:02.679Z,4.37
2018-06-09T21:18:32.936Z,4.97
2018-06-09T21:21:02.398Z,4.63
2018-06-09T21:23:31.733Z,4.70
2018-06-09T21:26:01.109Z,5.40
2018-06-09T21:28:35.132Z,6.50
2018-06-09T21:31:11.289Z,5.27
2018-06-09T21:33:57.160Z,4.87
2018-06-09T21:36:28.425Z,5.27
2018-06-09T21:39:01.031Z,4.70
2018-06-09T21:41:35.405Z,5.20
2018-06-09T21:44:09.897Z,4.87
2018-06-09T21:46:44.066Z,5.10
2018-06-09T21:49:13.148Z,4.80
2018-06-09T21:51:42.902Z,5.60
2018-06-09T21:54:12.815Z,5.40
2018-06-09T21:56:41.853Z,4.87
2018-06-09T21:59:11.048Z,5.03
2018-06-09T22:01:40.706Z,5.23
2018-06-09T22:04:09.764Z,5.57
2018-06-09T22:06:39.102Z,5.13
2018-06-09T22:09:08.490Z,4.97
2018-06-09T22:11:37.871Z,5.70
2018-06-09T22:14:07.298Z,6.60
2018-06-09T22:16:37.717Z,5.20
2018-06-09T22:19:08.139Z,5.47
2018-06-09T22:21:37.611Z,5.53
2018-06-09T22:24:07.014Z,5.37
2018-06-09T22:26:37.091Z,5.13
2018-06-09T22:29:06.922Z,4.83
2018-06-09T22:31:36.053Z,5.87
2018-06-09T22:34:06.116Z,4.77
2018-06-09T22:36:35.788Z,5.70
2018-06-09T22:39:06.768Z,5.37
2018-06-09T22:41:35.800Z,5.63
2018-06-09T22:44:04.935Z,5.10
2018-06-09T22:46:34.937Z,5.03
2018-06-09T22:49:04.822Z,4.70
2018-06-09T22:51:33.818Z,5.37
2018-06-09T22:54:02.866Z,5.57
2018-06-09T22:56:31.883Z,5.73
2018-06-09T22:59:00.943Z,5.63
2018-06-09T23:01:32.053Z,5.63
2018-06-09T23:04:01.033Z,5.67
2018-06-09T23:06:30.104Z,6.13
2018-06-09T23:08:59.132Z,5.20
2018-06-09T23:11:28.309Z,5.43
2018-06-09T23:13:57.641Z,5.40
2018-06-09T23:16:26.684Z,5.60
2018-06-09T23:18:55.676Z,4.57
2018-06-09T23:21:24.682Z,5.87
2018-06-09T23:23:53.728Z,6.93
2018-06-09T23:26:22.687Z,5.77
2018-06-09T23:28:51.969Z,5.20
2018-06-09T23:31:23.219Z,6.20
2018-06-09T23:33:52.287Z,7.47
2018-06-09T23:36:22.406Z,6.50
2018-06-09T23:38:51.462Z,5.93
2018-06-09T23:41:20.430Z,5.40
2018-06-09T23:43:49.471Z,5.90
2018-06-09T23:46:18.461Z,5.67
2018-06-09T23:48:49.151Z,6.00
2018-06-09T23:51:19.119Z,6.73
2018-06-09T23:53:48.068Z,5.40
2018-06-09T23:56:17.130Z,5.13
2018-06-09T23:58:46.223Z,5.90
